Kamerunga, Queensland

10:55 PM AEST on March 01, 2015 (GMT +1000)
IQLDREDL7 | Change Station
CLOSE
Current Station
Personal Weather Station
Location: Redlynch, QLD
Elevation: 164 ft
Nearby Weather Stations

Elev 164 ft 16.89 °S, 145.69 °E | Updated 1 minute ago

Scattered Clouds
Scattered Clouds
77.7 °F
Feels Like 79 °F
N
0.0
Wind Variable Wind from East
Gusts 0.0 mph

Today
High -- | Low -- °F
--% Chance of Precip.
Yesterday
High -- | Low -- °F
Precip. -- in
6:16 AM 6:42 PM
Waxing Gibbous, 85% visible
Pressure 29.80 in
Visibility 6.2 miles
Clouds Few 2500 ft
Scattered Clouds 3000 ft
Heat Index 79 °F
Dew Point 59 °F
Humidity 52%
Rainfall 0.00 in
Snow Depth Not available.
UV 0 out of 12
Pollen Not available.
Air Quality Not available.
Flu Activity Not available.
METAR YBCS 011230Z 27003KT 9999 FEW025 SCT030 26/24 Q1009

More Conditions Fewer Conditions

Pressure 29.80 in
Visibility 6.2 miles
Clouds Few 2500 ft
Scattered Clouds 3000 ft
Heat Index 79 °F
Dew Point 59 °F
Humidity 52%
Rainfall 0.00 in
Snow Depth Not available.
UV 0 out of 12
Pollen Not available.
Air Quality Not available.
Flu Activity Not available.
METAR YBCS 011230Z 27003KT 9999 FEW025 SCT030 26/24 Q1009

More Conditions Fewer Conditions

10-Day Weather Forecast

Almanac

Astronomy

Mar. 01, 2015 Rise Set
Actual Time
Civil Twilight
Nautical Twilight
Astronomical Twilight
Moon
Length of Visible Light
Length of Day
Tomorrow will be .
, % of the Moon is Illuminated

Today's Extremes

Country Highs Country Lows

Community

WunderPhotos

Upload Photos

1,801,371 photos uploaded!

WunderBlogs® & News

Nearby

Air Quality

  Air Quality AQ Index Pollutant
Not available.

Snow Depth

Station Depth Elevation

Earthquake Activity

City Distance Mag. Time & Date
Minimum magnitude displayed is 2.5.

Coastal Water Temperatures

Place Temperature

Nearby Weather Stations